Magaria, Niger
Current Conditions -  °F | °C
As of 8:45 PM on Tuesday 21 Oct 2014 (Local Time) from KQAZ Reporting Station
Clear Clear  
Wind Chill: 82°   Ceiling: Unl
Heat Index: 82°   Visibility: 6mi
Dew Point: 34°   Wind: 5mph
Humidity: 17%   Direction: 110°ESE
Pressure: 29.96"   Gusts: NA
Location:  12.99°N, 8.91°E
Report Text: KQAZ 211945Z AUTO 11004KT 9999 CLR 28/01 A2996 RMK CDP03565 CLR
Loading
Personal Weather Stations






























Interactive Weather Map
Tropical Storm Tracking
New forecast layout! Learn more

10-Day Weather Forecast

Advertisements
Track Severe Weather on mobile